createdAt,value
2022-12-18T00:09:25.243Z,50.24
2022-12-18T00:29:30.646Z,45.49
2022-12-18T00:49:36.440Z,41.83
2022-12-18T01:09:42.226Z,41.86
2022-12-18T01:29:48.083Z,46.08
2022-12-18T01:49:53.973Z,39.13
2022-12-18T02:09:59.737Z,42.53
2022-12-18T02:30:05.546Z,30.42
2022-12-18T02:50:11.369Z,31.36
2022-12-18T03:10:17.161Z,29.16
2022-12-18T03:30:22.996Z,25.97
2022-12-18T03:50:28.798Z,28.73
2022-12-18T04:10:34.614Z,28.25
2022-12-18T04:30:40.486Z,32.33
2022-12-18T04:50:46.365Z,22.97
2022-12-18T05:10:52.124Z,25.09
2022-12-18T05:30:58.068Z,27.69
2022-12-18T05:51:03.806Z,31.38
2022-12-18T06:11:09.602Z,27.96
2022-12-18T06:31:15.514Z,31.75
2022-12-18T06:51:21.170Z,32.41
2022-12-18T07:11:27.014Z,33.51
2022-12-18T07:31:32.913Z,29.45
2022-12-18T07:51:38.775Z,33.82
2022-12-18T08:11:44.658Z,31.14
2022-12-18T08:31:50.514Z,24.24
2022-12-18T08:51:56.258Z,19.12
2022-12-18T09:12:02.145Z,27.47
2022-12-18T09:32:07.896Z,22.18
2022-12-18T09:52:13.722Z,26.67
2022-12-18T10:12:19.485Z,23.99
2022-12-18T10:32:25.254Z,22.41
2022-12-18T10:52:31.039Z,20.69
2022-12-18T11:12:36.871Z,18.77
2022-12-18T11:32:42.659Z,25.33
2022-12-18T11:52:52.784Z,23.97
2022-12-18T12:12:53.853Z,23.10
2022-12-18T12:32:59.652Z,21.68
2022-12-18T12:53:05.453Z,20.09
2022-12-18T13:13:11.286Z,21.49
2022-12-18T13:33:17.192Z,26.21
2022-12-18T13:53:22.988Z,23.05
2022-12-18T14:13:28.793Z,25.64
2022-12-18T14:33:34.605Z,23.93
2022-12-18T14:53:40.858Z,25.78
2022-12-18T15:13:45.813Z,34.46
2022-12-18T15:33:51.593Z,28.72
2022-12-18T15:53:57.808Z,25.92
2022-12-18T16:14:03.676Z,24.13
2022-12-18T16:34:09.525Z,23.82
2022-12-18T16:54:19.177Z,29.47
2022-12-18T17:14:20.705Z,29.30
2022-12-18T17:34:26.546Z,26.37
2022-12-18T17:54:32.380Z,24.90
2022-12-18T18:14:38.181Z,25.18
2022-12-18T18:34:43.543Z,24.58
2022-12-18T18:55:11.498Z,30.33
2022-12-18T19:14:55.885Z,30.40
2022-12-18T19:35:01.637Z,30.93
2022-12-18T19:55:07.464Z,31.54
2022-12-18T20:15:13.300Z,35.47
2022-12-18T20:35:20.033Z,36.63
2022-12-18T20:55:25.765Z,36.99
2022-12-18T21:15:31.546Z,38.12
2022-12-18T21:35:37.356Z,40.41
2022-12-18T21:55:43.141Z,35.13
2022-12-18T22:15:49.073Z,33.86
2022-12-18T22:35:54.828Z,30.30
2022-12-18T22:56:00.805Z,29.44
2022-12-18T23:16:06.687Z,25.81
2022-12-18T23:36:12.390Z,27.98
2022-12-18T23:56:18.192Z,26.60
